KLBX

Texas Gulf Coast Regional Airport

Airport
ICAO code
KLBX
Summary
ICAO Region
NAM
ICAO Territory
Location

Angleton/Lake Jackson, Texas,

Coordinates
29° 6' 36" N , 95° 27' 43" W
KCC
Metar
Observation
KLBX 302053Z AUTO 15015G24KT 10SM BKN016 BKN021 OVC028 25/21 A2997 RMK AO2 PK WND 14032/2015 SLP147 T02500211 58019
Station
Angleton / Lake Jackson, Brazoria County Airport
Date/Time
2023-03-30 20:53:00
Wind direction
150°
Wind speed
15 kts
Lowest cloud amount
broken clouds
Temperature
25°C
Dew point
21.1°C
Humidity
79%
Weather condition
n/a

Description

Texas Gulf Coast Regional Airport, previously known as Brazoria County Airport, is a public use airport located 6 km southwest of the central business district of Angleton and north of Lake Jackson, both cities in Brazoria County, Texas.

Climatology

Humid “subtropical” climate (Köppen climate classification Cfa) - characterized by hot, humid summers and cool winters. Significant amounts of precipitation occur in all seasons in most areas. Winter rainfall (and sometimes snowfall) is associated with large storms that the westerlies steer from west to east. Most summer rainfall occurs during thunderstorms and occasional tropical storms (hurricanes).

Runways

Designator Length Width Surface Rops
17/35 2134 30 ASP Yes/Yes

Airport map

Aerial View

SKYbrary Partners:

Safety knowledge contributed by: